Cosco Tengfei — HPMO — position and weather

sailwx.info

Track history (hours):
 
Tides and Currents Weather Stations Pressure Air Temp Water Temp Dewpoint Dewpoint Depression Visibility Wind Speed Wind Dir Waves Ship Positions

Cosco Tengfei

Last reported at 2016-Feb-12 07:29 UTC. Time now 2016-Feb-12 14:03 UTC.
Position N 36°19' W 008°10'.

Length 183 m; draft 8.6 m.

Type: Cargo ship. MMSI: 355518000.

Date/timePositionNaut miles runAvg speedWind from/ knotsBaromVisibWave heightAir tempDewpointWater temp
2016-Feb-12 07:29N 36°19' W 008°10'1818.0
2016-Feb-12 06:29N 36°24' W 008°31'1917.7
2016-Feb-12 05:23N 36°29' W 008°55'1617.9
2016-Feb-12 04:29N 36°33' W 009°14'1616.6
2016-Feb-12 03:32N 36°44' W 009°29'1716.8
2016-Feb-12 02:32N 36°59' W 009°36'1817.6
2016-Feb-12 01:32N 37°16' W 009°41'1817.9
2016-Feb-12 00:32N 37°34' W 009°46'2016.1
2016-Feb-11 23:17N 37°54' W 009°52'1317.7
2016-Feb-11 22:33N 38°06' W 009°55'1817.9
2016-Feb-11 21:33N 38°23' W 010°01'1817.7
2016-Feb-11 20:33N 38°41' W 010°06'1817.6
2016-Feb-11 19:33N 38°58' W 010°06'1717.4
2016-Feb-11 18:33N 39°16' W 010°06'2518.5
2016-Feb-11 17:14N 39°40' W 010°06'1217.9
2016-Feb-11 16:32N 39°53' W 010°06'1816.9
2016-Feb-11 15:29N 40°10' W 010°06'2317.5
2016-Feb-11 14:11N 40°33' W 010°06'1116.7
2016-Feb-11 13:32N 40°44' W 010°06'1918.5
2016-Feb-11 12:29N 41°03' W 010°06'2517.5
2016-Feb-11 11:05N 41°28' W 010°06'916.0
2016-Feb-11 10:32N 41°37' W 010°06'1817.9
2016-Feb-11 09:32N 41°55' W 010°06'66113.4
2016-Feb-09 08:16N 50°29' W 000°06'1013.9
2016-Feb-09 07:33N 50°31' E 000°10'3615.6
2016-Feb-09 05:15N 50°47' E 001°00'1116.1
2016-Feb-09 04:33N 50°53' E 001°15'1515.0
2016-Feb-09 03:33N 51°05' E 001°31'1313.0
2016-Feb-09 02:33N 51°16' E 001°40'1514.6
2016-Feb-09 01:34N 51°28' E 001°27'1211.7
2016-Feb-09 00:34N 51°29' E 001°08'1514.5
2016-Feb-08 23:33N 51°27' E 000°45'1 0.9
2016-Feb-08 22:31N 51°26' E 000°44'0 0.0
2016-Feb-08 21:31N 51°26' E 000°44'0 0.0
2016-Feb-08 20:31N 51°26' E 000°44'0 0.0
2016-Feb-08 19:28N 51°26' E 000°44'0 0.0
2016-Feb-08 18:31N 51°26' E 000°44'0 0.0
2016-Feb-08 17:28N 51°26' E 000°44'0 0.0
2016-Feb-08 16:31N 51°26' E 000°44'0 0.0
2016-Feb-08 15:31N 51°26' E 000°44'0 0.5
2016-Feb-08 14:33N 51°27' E 000°44'7 6.6
2016-Feb-08 13:33N 51°29' E 000°55'1 1.3
2016-Feb-08 12:33N 51°29' E 000°57'8 8.4
2016-Feb-08 11:33N 51°29' E 001°10'1312.8
2016-Feb-08 10:33N 51°26' E 001°30'4 4.4
2016-Feb-08 09:33N 51°30' E 001°29'1 0.8
2016-Feb-08 08:33N 51°31' E 001°29'0 0.1
2016-Feb-08 07:33N 51°31' E 001°29'0 0.0
2016-Feb-08 06:33N 51°31' E 001°29'0 0.0
2016-Feb-08 05:33N 51°31' E 001°29'0 0.1
2016-Feb-08 04:33N 51°30' E 001°29'0 0.1
2016-Feb-08 03:33N 51°30' E 001°29'0 0.1
2016-Feb-08 02:33N 51°30' E 001°29'0 0.0
2016-Feb-08 01:33N 51°30' E 001°29'0 0.1
2016-Feb-08 00:33N 51°30' E 001°29'0 0.2
2016-Feb-07 23:33N 51°30' E 001°29'0 0.0
2016-Feb-07 22:33N 51°30' E 001°29'0 0.0
2016-Feb-07 21:33N 51°30' E 001°29'0 0.0
2016-Feb-07 20:33N 51°30' E 001°29'0 0.0
2016-Feb-07 19:33N 51°30' E 001°29'0 0.1
2016-Feb-07 18:33N 51°30' E 001°28'0 0.1
2016-Feb-07 17:33N 51°30' E 001°29'0 0.1
2016-Feb-07 16:33N 51°30' E 001°29'0 0.1
2016-Feb-07 15:33N 51°30' E 001°29'0 0.0
2016-Feb-07 14:33N 51°30' E 001°29'0 0.1
2016-Feb-07 13:33N 51°30' E 001°29'0 0.0
2016-Feb-07 12:33N 51°30' E 001°28'0 0.1
2016-Feb-07 11:33N 51°30' E 001°28'0 0.0
2016-Feb-07 10:33N 51°30' E 001°28'0 0.0
2016-Feb-07 09:33N 51°30' E 001°28'0 0.1
2016-Feb-07 08:33N 51°30' E 001°28'0 0.0
2016-Feb-07 07:33N 51°30' E 001°28'2 2.4
2016-Feb-07 06:33N 51°29' E 001°32'1 1.3
2016-Feb-07 05:33N 51°29' E 001°33'3 3.3
2016-Feb-07 04:33N 51°30' E 001°39'4 3.9
2016-Feb-07 03:33N 51°30' E 001°45'4 4.0
2016-Feb-07 02:33N 51°30' E 001°51'5 5.1
2016-Feb-07 01:33N 51°27' E 001°58'1010.3
2016-Feb-07 00:33N 51°22' E 002°12'9 9.0
2016-Feb-06 23:33N 51°22' E 002°27'10 9.6
2016-Feb-06 22:28N 51°22' E 002°43'1213.1
2016-Feb-06 21:33N 51°24' E 003°02'1515.6
2016-Feb-06 20:33N 51°25' E 003°27'10 9.7
2016-Feb-06 19:33N 51°24' E 003°43'1212.0
2016-Feb-06 18:33N 51°25' E 004°02'1110.7
2016-Feb-06 17:33N 51°20' E 004°16'4 4.2
2016-Feb-06 16:33N 51°16' E 004°17'0 0.1
2016-Feb-06 15:34N 51°16' E 004°17'1 1.4
2016-Feb-06 14:32N 51°16' E 004°14'0 0.0
2016-Feb-06 13:32N 51°16' E 004°14'0 0.0
2016-Feb-06 12:32N 51°16' E 004°14'0 0.0
2016-Feb-06 11:32N 51°16' E 004°14'0 0.0
2016-Feb-06 10:32N 51°16' E 004°14'0 0.0
2016-Feb-06 09:32N 51°16' E 004°14'0 0.0
2016-Feb-06 08:29N 51°16' E 004°14'0 0.0
2016-Feb-06 07:32N 51°16' E 004°14'0 0.0
2016-Feb-06 06:32N 51°16' E 004°14'0 0.0
2016-Feb-06 05:32N 51°16' E 004°14'0 0.0
2016-Feb-06 04:32N 51°16' E 004°14'0 0.0
2016-Feb-06 03:32N 51°16' E 004°14'0 0.0
2016-Feb-06 02:32N 51°16' E 004°14'0 0.0
2016-Feb-06 01:29N 51°16' E 004°14'0 0.0
2016-Feb-06 00:32N 51°16' E 004°14'0 0.0
2016-Feb-05 23:32N 51°16' E 004°14'0 0.0
2016-Feb-05 22:32N 51°16' E 004°14'0 0.0
2016-Feb-05 21:32N 51°16' E 004°14'0 0.0
2016-Feb-05 20:23N 51°16' E 004°14'0 0.0
2016-Feb-05 19:32N 51°16' E 004°14'0 0.0
2016-Feb-05 18:32N 51°16' E 004°14'0 0.0
2016-Feb-05 17:32N 51°16' E 004°14'0 0.0
2016-Feb-05 16:32N 51°16' E 004°14'0 0.0
2016-Feb-05 15:32N 51°16' E 004°14'0 0.0
2016-Feb-05 14:32N 51°16' E 004°14'0 0.0
2016-Feb-05 13:32N 51°16' E 004°14'0 0.0
2016-Feb-05 12:32N 51°16' E 004°14'0 0.0
2016-Feb-05 11:32N 51°16' E 004°14'0 0.0
2016-Feb-05 10:29N 51°16' E 004°14'0 0.0
2016-Feb-05 09:32N 51°16' E 004°14'0 0.0
2016-Feb-05 08:33N 51°16' E 004°14'1 1.5
2016-Feb-05 07:33N 51°16' E 004°17'1 0.8
2016-Feb-05 06:33N 51°16' E 004°18'5 5.4
2016-Feb-05 05:33N 51°21' E 004°15'5 5.4
2016-Feb-05 04:33N 51°22' E 004°07'6 6.1
2016-Feb-05 03:33N 51°26' E 003°59'8 8.2
2016-Feb-05 02:33N 51°21' E 003°48'9 8.5
2016-Feb-05 01:33N 51°26' E 003°37'1111.1
2016-Feb-05 00:33N 51°24' E 003°20'1212.2
2016-Feb-04 23:33N 51°28' E 003°01'1514.9
2016-Feb-04 22:33N 51°41' E 003°13'6 6.3
2016-Feb-04 21:32N 51°47' E 003°13'1 1.2
2016-Feb-04 20:32N 51°47' E 003°11'2 2.3
2016-Feb-04 19:32N 51°45' E 003°08'1 1.1
2016-Feb-04 18:33N 51°45' E 003°06'0 0.4
2016-Feb-04 17:24N 51°46' E 003°06'1 1.5
2016-Feb-04 16:32N 51°47' E 003°08'1 0.7
2016-Feb-04 15:33N 51°46' E 003°08'1 1.5
2016-Feb-04 14:32N 51°47' E 003°07'2 1.5
2016-Feb-04 13:33N 51°49' E 003°07'3 3.0
2016-Feb-04 12:33N 51°50' E 003°11'3 2.9
2016-Feb-04 11:29N 51°51' E 003°16'7311.7
2016-Feb-04 05:13N 52°59' E 004°03'1015.4
2016-Feb-04 04:33N 53°06' E 004°16'3214.8
2016-Feb-04 02:25N 53°31' E 004°47'1315.0
2016-Feb-04 01:33N 53°35' E 005°08'1515.0
2016-Feb-04 00:34N 53°40' E 005°32'1615.6
2016-Feb-03 23:33N 53°45' E 005°57'1616.2
2016-Feb-03 22:33N 53°50' E 006°23'1616.4
2016-Feb-03 21:33N 53°54' E 006°50'1616.3
2016-Feb-03 20:33N 53°57' E 007°17'1514.8
2016-Feb-03 19:34N 53°57' E 007°42'1515.4
2016-Feb-03 18:33N 53°50' E 008°05'1515.5
2016-Feb-03 17:33N 53°39' E 008°24'7 7.2
2016-Feb-03 16:33N 53°34' E 008°33'1 0.5
2016-Feb-03 15:33N 53°34' E 008°34'0 0.0
2016-Feb-03 14:33N 53°34' E 008°34'0 0.0
2016-Feb-03 13:33N 53°34' E 008°34'0 0.0
2016-Feb-03 12:33N 53°35' E 008°34'0 0.0
2016-Feb-03 11:33N 53°35' E 008°34'0 0.0
2016-Feb-03 10:33N 53°35' E 008°34'0 0.0
2016-Feb-03 09:33N 53°34' E 008°34'0 0.0
2016-Feb-03 08:33N 53°34' E 008°34'0 0.0
2016-Feb-03 07:33N 53°35' E 008°34'0 0.0
2016-Feb-03 06:33N 53°35' E 008°34'0 0.0
2016-Feb-03 05:33N 53°34' E 008°34'0 0.0
2016-Feb-03 04:33N 53°34' E 008°34'0 0.0
2016-Feb-03 03:33N 53°34' E 008°34'0 0.0
2016-Feb-03 02:33N 53°34' E 008°34'0 0.0
2016-Feb-03 01:33N 53°35' E 008°34'0 0.0
2016-Feb-03 00:33N 53°34' E 008°34'0 0.0
2016-Feb-02 23:33N 53°34' E 008°34'0 0.0
2016-Feb-02 22:33N 53°35' E 008°34'0 0.0
2016-Feb-02 21:33N 53°34' E 008°34'0 0.0
2016-Feb-02 20:33N 53°35' E 008°34'0 0.0
2016-Feb-02 19:33N 53°34' E 008°34'0 0.0
2016-Feb-02 18:30N 53°34' E 008°34'0 0.0
2016-Feb-02 17:33N 53°34' E 008°34'0 0.0
2016-Feb-02 16:33N 53°34' E 008°34'0 0.0
2016-Feb-02 15:33N 53°35' E 008°34'0 0.0
2016-Feb-02 14:30N 53°34' E 008°34'0 0.0
2016-Feb-02 13:33N 53°34' E 008°34'0 0.0
2016-Feb-02 12:33N 53°35' E 008°34'0 0.0
2016-Feb-02 11:33N 53°34' E 008°34'0 0.0
2016-Feb-02 10:33N 53°35' E 008°34'0 0.0
2016-Feb-02 09:33N 53°34' E 008°34'0 0.0
2016-Feb-02 08:33N 53°35' E 008°34'0 0.0
2016-Feb-02 07:33N 53°34' E 008°34'  
Track history (hours):
 
Tides and Currents Weather Stations Pressure Air Temp Water Temp Dewpoint Dewpoint Depression Visibility Wind Speed Wind Dir Waves Ship Positions

Cosco Tengfei

Last reported at 2016-Feb-12 07:29 UTC. Time now 2016-Feb-12 14:03 UTC.
Position N 36°19' W 008°10'.

Length 183 m; draft 8.6 m.

Type: Cargo ship. MMSI: 355518000.

Date/timePositionNaut miles runAvg speedWind from/ knotsBaromVisibWave heightAir tempDewpointWater temp
2016-Feb-12 07:29N 36°19' W 008°10'1818.0
2016-Feb-12 06:29N 36°24' W 008°31'1917.7
2016-Feb-12 05:23N 36°29' W 008°55'1617.9
2016-Feb-12 04:29N 36°33' W 009°14'1616.6
2016-Feb-12 03:32N 36°44' W 009°29'1716.8
2016-Feb-12 02:32N 36°59' W 009°36'1817.6
2016-Feb-12 01:32N 37°16' W 009°41'1817.9
2016-Feb-12 00:32N 37°34' W 009°46'2016.1
2016-Feb-11 23:17N 37°54' W 009°52'1317.7
2016-Feb-11 22:33N 38°06' W 009°55'1817.9
2016-Feb-11 21:33N 38°23' W 010°01'1817.7
2016-Feb-11 20:33N 38°41' W 010°06'1817.6
2016-Feb-11 19:33N 38°58' W 010°06'1717.4
2016-Feb-11 18:33N 39°16' W 010°06'2518.5
2016-Feb-11 17:14N 39°40' W 010°06'1217.9
2016-Feb-11 16:32N 39°53' W 010°06'1816.9
2016-Feb-11 15:29N 40°10' W 010°06'2317.5
2016-Feb-11 14:11N 40°33' W 010°06'1116.7
2016-Feb-11 13:32N 40°44' W 010°06'1918.5
2016-Feb-11 12:29N 41°03' W 010°06'2517.5
2016-Feb-11 11:05N 41°28' W 010°06'916.0
2016-Feb-11 10:32N 41°37' W 010°06'1817.9
2016-Feb-11 09:32N 41°55' W 010°06'66113.4
2016-Feb-09 08:16N 50°29' W 000°06'1013.9
2016-Feb-09 07:33N 50°31' E 000°10'3615.6
2016-Feb-09 05:15N 50°47' E 001°00'1116.1
2016-Feb-09 04:33N 50°53' E 001°15'1515.0
2016-Feb-09 03:33N 51°05' E 001°31'1313.0
2016-Feb-09 02:33N 51°16' E 001°40'1514.6
2016-Feb-09 01:34N 51°28' E 001°27'1211.7
2016-Feb-09 00:34N 51°29' E 001°08'1514.5
2016-Feb-08 23:33N 51°27' E 000°45'1 0.9
2016-Feb-08 22:31N 51°26' E 000°44'0 0.0
2016-Feb-08 21:31N 51°26' E 000°44'0 0.0
2016-Feb-08 20:31N 51°26' E 000°44'0 0.0
2016-Feb-08 19:28N 51°26' E 000°44'0 0.0
2016-Feb-08 18:31N 51°26' E 000°44'0 0.0
2016-Feb-08 17:28N 51°26' E 000°44'0 0.0
2016-Feb-08 16:31N 51°26' E 000°44'0 0.0
2016-Feb-08 15:31N 51°26' E 000°44'0 0.5
2016-Feb-08 14:33N 51°27' E 000°44'7 6.6
2016-Feb-08 13:33N 51°29' E 000°55'1 1.3
2016-Feb-08 12:33N 51°29' E 000°57'8 8.4
2016-Feb-08 11:33N 51°29' E 001°10'1312.8
2016-Feb-08 10:33N 51°26' E 001°30'4 4.4
2016-Feb-08 09:33N 51°30' E 001°29'1 0.8
2016-Feb-08 08:33N 51°31' E 001°29'0 0.1
2016-Feb-08 07:33N 51°31' E 001°29'0 0.0
2016-Feb-08 06:33N 51°31' E 001°29'0 0.0
2016-Feb-08 05:33N 51°31' E 001°29'0 0.1
2016-Feb-08 04:33N 51°30' E 001°29'0 0.1
2016-Feb-08 03:33N 51°30' E 001°29'0 0.1
2016-Feb-08 02:33N 51°30' E 001°29'0 0.0
2016-Feb-08 01:33N 51°30' E 001°29'0 0.1
2016-Feb-08 00:33N 51°30' E 001°29'0 0.2
2016-Feb-07 23:33N 51°30' E 001°29'0 0.0
2016-Feb-07 22:33N 51°30' E 001°29'0 0.0
2016-Feb-07 21:33N 51°30' E 001°29'0 0.0
2016-Feb-07 20:33N 51°30' E 001°29'0 0.0
2016-Feb-07 19:33N 51°30' E 001°29'0 0.1
2016-Feb-07 18:33N 51°30' E 001°28'0 0.1
2016-Feb-07 17:33N 51°30' E 001°29'0 0.1
2016-Feb-07 16:33N 51°30' E 001°29'0 0.1
2016-Feb-07 15:33N 51°30' E 001°29'0 0.0
2016-Feb-07 14:33N 51°30' E 001°29'0 0.1
2016-Feb-07 13:33N 51°30' E 001°29'0 0.0
2016-Feb-07 12:33N 51°30' E 001°28'0 0.1
2016-Feb-07 11:33N 51°30' E 001°28'0 0.0
2016-Feb-07 10:33N 51°30' E 001°28'0 0.0
2016-Feb-07 09:33N 51°30' E 001°28'0 0.1
2016-Feb-07 08:33N 51°30' E 001°28'0 0.0
2016-Feb-07 07:33N 51°30' E 001°28'2 2.4
2016-Feb-07 06:33N 51°29' E 001°32'1 1.3
2016-Feb-07 05:33N 51°29' E 001°33'3 3.3
2016-Feb-07 04:33N 51°30' E 001°39'4 3.9
2016-Feb-07 03:33N 51°30' E 001°45'4 4.0
2016-Feb-07 02:33N 51°30' E 001°51'5 5.1
2016-Feb-07 01:33N 51°27' E 001°58'1010.3
2016-Feb-07 00:33N 51°22' E 002°12'9 9.0
2016-Feb-06 23:33N 51°22' E 002°27'10 9.6
2016-Feb-06 22:28N 51°22' E 002°43'1213.1
2016-Feb-06 21:33N 51°24' E 003°02'1515.6
2016-Feb-06 20:33N 51°25' E 003°27'10 9.7
2016-Feb-06 19:33N 51°24' E 003°43'1212.0
2016-Feb-06 18:33N 51°25' E 004°02'1110.7
2016-Feb-06 17:33N 51°20' E 004°16'4 4.2
2016-Feb-06 16:33N 51°16' E 004°17'0 0.1
2016-Feb-06 15:34N 51°16' E 004°17'1 1.4
2016-Feb-06 14:32N 51°16' E 004°14'0 0.0
2016-Feb-06 13:32N 51°16' E 004°14'0 0.0
2016-Feb-06 12:32N 51°16' E 004°14'0 0.0
2016-Feb-06 11:32N 51°16' E 004°14'0 0.0
2016-Feb-06 10:32N 51°16' E 004°14'0 0.0
2016-Feb-06 09:32N 51°16' E 004°14'0 0.0
2016-Feb-06 08:29N 51°16' E 004°14'0 0.0
2016-Feb-06 07:32N 51°16' E 004°14'0 0.0
2016-Feb-06 06:32N 51°16' E 004°14'0 0.0
2016-Feb-06 05:32N 51°16' E 004°14'0 0.0
2016-Feb-06 04:32N 51°16' E 004°14'0 0.0
2016-Feb-06 03:32N 51°16' E 004°14'0 0.0
2016-Feb-06 02:32N 51°16' E 004°14'0 0.0
2016-Feb-06 01:29N 51°16' E 004°14'0 0.0
2016-Feb-06 00:32N 51°16' E 004°14'0 0.0
2016-Feb-05 23:32N 51°16' E 004°14'0 0.0
2016-Feb-05 22:32N 51°16' E 004°14'0 0.0
2016-Feb-05 21:32N 51°16' E 004°14'0 0.0
2016-Feb-05 20:23N 51°16' E 004°14'0 0.0
2016-Feb-05 19:32N 51°16' E 004°14'0 0.0
2016-Feb-05 18:32N 51°16' E 004°14'0 0.0
2016-Feb-05 17:32N 51°16' E 004°14'0 0.0
2016-Feb-05 16:32N 51°16' E 004°14'0 0.0
2016-Feb-05 15:32N 51°16' E 004°14'0 0.0
2016-Feb-05 14:32N 51°16' E 004°14'0 0.0
2016-Feb-05 13:32N 51°16' E 004°14'0 0.0
2016-Feb-05 12:32N 51°16' E 004°14'0 0.0
2016-Feb-05 11:32N 51°16' E 004°14'0 0.0
2016-Feb-05 10:29N 51°16' E 004°14'0 0.0
2016-Feb-05 09:32N 51°16' E 004°14'0 0.0
2016-Feb-05 08:33N 51°16' E 004°14'1 1.5
2016-Feb-05 07:33N 51°16' E 004°17'1 0.8
2016-Feb-05 06:33N 51°16' E 004°18'5 5.4
2016-Feb-05 05:33N 51°21' E 004°15'5 5.4
2016-Feb-05 04:33N 51°22' E 004°07'6 6.1
2016-Feb-05 03:33N 51°26' E 003°59'8 8.2
2016-Feb-05 02:33N 51°21' E 003°48'9 8.5
2016-Feb-05 01:33N 51°26' E 003°37'1111.1
2016-Feb-05 00:33N 51°24' E 003°20'1212.2
2016-Feb-04 23:33N 51°28' E 003°01'1514.9
2016-Feb-04 22:33N 51°41' E 003°13'6 6.3
2016-Feb-04 21:32N 51°47' E 003°13'1 1.2
2016-Feb-04 20:32N 51°47' E 003°11'2 2.3
2016-Feb-04 19:32N 51°45' E 003°08'1 1.1
2016-Feb-04 18:33N 51°45' E 003°06'0 0.4
2016-Feb-04 17:24N 51°46' E 003°06'1 1.5
2016-Feb-04 16:32N 51°47' E 003°08'1 0.7
2016-Feb-04 15:33N 51°46' E 003°08'1 1.5
2016-Feb-04 14:32N 51°47' E 003°07'2 1.5
2016-Feb-04 13:33N 51°49' E 003°07'3 3.0
2016-Feb-04 12:33N 51°50' E 003°11'3 2.9
2016-Feb-04 11:29N 51°51' E 003°16'7311.7
2016-Feb-04 05:13N 52°59' E 004°03'1015.4
2016-Feb-04 04:33N 53°06' E 004°16'3214.8
2016-Feb-04 02:25N 53°31' E 004°47'1315.0
2016-Feb-04 01:33N 53°35' E 005°08'1515.0
2016-Feb-04 00:34N 53°40' E 005°32'1615.6
2016-Feb-03 23:33N 53°45' E 005°57'1616.2
2016-Feb-03 22:33N 53°50' E 006°23'1616.4
2016-Feb-03 21:33N 53°54' E 006°50'1616.3
2016-Feb-03 20:33N 53°57' E 007°17'1514.8
2016-Feb-03 19:34N 53°57' E 007°42'1515.4
2016-Feb-03 18:33N 53°50' E 008°05'1515.5
2016-Feb-03 17:33N 53°39' E 008°24'7 7.2
2016-Feb-03 16:33N 53°34' E 008°33'1 0.5
2016-Feb-03 15:33N 53°34' E 008°34'0 0.0
2016-Feb-03 14:33N 53°34' E 008°34'0 0.0
2016-Feb-03 13:33N 53°34' E 008°34'0 0.0
2016-Feb-03 12:33N 53°35' E 008°34'0 0.0
2016-Feb-03 11:33N 53°35' E 008°34'0 0.0
2016-Feb-03 10:33N 53°35' E 008°34'0 0.0
2016-Feb-03 09:33N 53°34' E 008°34'0 0.0
2016-Feb-03 08:33N 53°34' E 008°34'0 0.0
2016-Feb-03 07:33N 53°35' E 008°34'0 0.0
2016-Feb-03 06:33N 53°35' E 008°34'0 0.0
2016-Feb-03 05:33N 53°34' E 008°34'0 0.0
2016-Feb-03 04:33N 53°34' E 008°34'0 0.0
2016-Feb-03 03:33N 53°34' E 008°34'0 0.0
2016-Feb-03 02:33N 53°34' E 008°34'0 0.0
2016-Feb-03 01:33N 53°35' E 008°34'0 0.0
2016-Feb-03 00:33N 53°34' E 008°34'0 0.0
2016-Feb-02 23:33N 53°34' E 008°34'0 0.0
2016-Feb-02 22:33N 53°35' E 008°34'0 0.0
2016-Feb-02 21:33N 53°34' E 008°34'0 0.0
2016-Feb-02 20:33N 53°35' E 008°34'0 0.0
2016-Feb-02 19:33N 53°34' E 008°34'0 0.0
2016-Feb-02 18:30N 53°34' E 008°34'0 0.0
2016-Feb-02 17:33N 53°34' E 008°34'0 0.0
2016-Feb-02 16:33N 53°34' E 008°34'0 0.0
2016-Feb-02 15:33N 53°35' E 008°34'0 0.0
2016-Feb-02 14:30N 53°34' E 008°34'0 0.0
2016-Feb-02 13:33N 53°34' E 008°34'0 0.0
2016-Feb-02 12:33N 53°35' E 008°34'0 0.0
2016-Feb-02 11:33N 53°34' E 008°34'0 0.0
2016-Feb-02 10:33N 53°35' E 008°34'0 0.0
2016-Feb-02 09:33N 53°34' E 008°34'0 0.0
2016-Feb-02 08:33N 53°35' E 008°34'0 0.0
2016-Feb-02 07:33N 53°34' E 008°34'  

Dump ship's entire track history